createdAt,value
2017-12-09T00:02:20.887Z,22.33
2017-12-09T00:04:48.293Z,21.45
2017-12-09T00:07:15.693Z,21.52
2017-12-09T00:09:43.108Z,21.40
2017-12-09T00:12:10.525Z,21.27
2017-12-09T00:14:37.946Z,21.10
2017-12-09T00:17:05.350Z,20.70
2017-12-09T00:19:32.766Z,19.62
2017-12-09T00:22:00.173Z,21.00
2017-12-09T00:24:27.589Z,19.95
2017-12-09T00:26:55.006Z,21.25
2017-12-09T00:29:22.426Z,18.95
2017-12-09T00:31:49.854Z,19.48
2017-12-09T00:34:17.256Z,19.30
2017-12-09T00:36:44.677Z,18.80
2017-12-09T00:39:12.085Z,19.05
2017-12-09T00:41:39.518Z,20.10
2017-12-09T00:44:06.936Z,18.30
2017-12-09T00:46:34.357Z,18.40
2017-12-09T00:49:01.768Z,19.27
2017-12-09T00:51:29.197Z,18.65
2017-12-09T00:53:56.605Z,18.45
2017-12-09T00:56:24.017Z,19.87
2017-12-09T00:58:51.434Z,18.23
2017-12-09T01:01:18.837Z,19.60
2017-12-09T01:03:46.261Z,18.08
2017-12-09T01:06:13.679Z,18.15
2017-12-09T01:08:41.100Z,19.05
2017-12-09T01:11:08.509Z,17.92
2017-12-09T01:13:35.936Z,17.92
2017-12-09T01:16:14.961Z,19.00
2017-12-09T01:18:54.078Z,18.25
2017-12-09T01:21:21.470Z,17.20
2017-12-09T01:23:48.889Z,18.02
2017-12-09T01:26:16.298Z,18.10
2017-12-09T01:28:43.749Z,18.65
2017-12-09T01:31:11.157Z,18.75
2017-12-09T01:33:38.577Z,17.85
2017-12-09T01:36:06.031Z,18.65
2017-12-09T01:38:33.709Z,18.10
2017-12-09T01:41:01.149Z,17.40
2017-12-09T01:43:28.565Z,18.00
2017-12-09T01:45:55.989Z,16.98
2017-12-09T01:48:23.434Z,16.90
2017-12-09T01:50:51.619Z,18.37
2017-12-09T01:53:19.033Z,19.12
2017-12-09T01:55:46.455Z,17.08
2017-12-09T01:58:13.882Z,17.77
2017-12-09T02:00:41.301Z,19.17
2017-12-09T02:03:08.726Z,17.35
2017-12-09T02:05:36.132Z,18.25
2017-12-09T02:08:03.548Z,17.58
2017-12-09T02:10:30.965Z,17.50
2017-12-09T02:12:58.383Z,17.75
2017-12-09T02:15:25.809Z,17.23
2017-12-09T02:17:53.241Z,17.45
2017-12-09T02:20:20.688Z,18.30
2017-12-09T02:22:48.109Z,17.02
2017-12-09T02:25:15.510Z,17.17
2017-12-09T02:27:42.942Z,17.05
2017-12-09T02:30:10.363Z,17.85
2017-12-09T02:32:37.785Z,17.05
2017-12-09T02:35:05.204Z,17.17
2017-12-09T02:37:32.620Z,18.33
2017-12-09T02:40:00.038Z,18.17
2017-12-09T02:42:27.446Z,16.12
2017-12-09T02:44:54.887Z,17.00
2017-12-09T02:47:22.293Z,17.33
2017-12-09T02:49:49.713Z,16.30
2017-12-09T02:52:17.118Z,16.98
2017-12-09T02:54:44.542Z,17.80
2017-12-09T02:57:11.953Z,18.08
2017-12-09T02:59:39.365Z,18.10
2017-12-09T03:02:06.810Z,17.00
2017-12-09T03:04:34.217Z,17.23
2017-12-09T03:07:01.630Z,17.25
2017-12-09T03:09:29.033Z,16.85
2017-12-09T03:11:56.473Z,16.58
2017-12-09T03:14:23.913Z,17.23
2017-12-09T03:16:51.317Z,17.75
2017-12-09T03:19:18.723Z,18.33
2017-12-09T03:21:46.141Z,16.65
2017-12-09T03:24:13.546Z,17.60
2017-12-09T03:26:40.954Z,17.75
2017-12-09T03:29:08.395Z,17.60
2017-12-09T03:31:35.793Z,17.17
2017-12-09T03:34:03.232Z,17.48
2017-12-09T03:36:30.692Z,16.73
2017-12-09T03:38:58.071Z,18.05
2017-12-09T03:41:25.490Z,17.98
2017-12-09T03:43:52.898Z,17.35
2017-12-09T03:46:20.308Z,16.77
2017-12-09T03:48:47.718Z,16.83
2017-12-09T03:51:15.121Z,20.48
2017-12-09T03:53:42.550Z,20.15
2017-12-09T03:56:09.990Z,18.10
2017-12-09T03:58:37.401Z,16.80
2017-12-09T04:01:04.810Z,17.15
2017-12-09T04:03:32.230Z,16.60
2017-12-09T04:05:59.682Z,17.20
2017-12-09T04:08:27.105Z,16.85
2017-12-09T04:10:54.529Z,17.92
2017-12-09T04:13:21.933Z,18.67
2017-12-09T04:15:49.341Z,17.52
2017-12-09T04:18:16.765Z,17.37
2017-12-09T04:20:44.177Z,17.50
2017-12-09T04:23:11.610Z,18.10
2017-12-09T04:25:39.018Z,18.20
2017-12-09T04:28:06.421Z,17.55
2017-12-09T04:30:33.844Z,18.55
2017-12-09T04:33:01.257Z,18.95
2017-12-09T04:35:28.668Z,18.23
2017-12-09T04:37:56.081Z,18.15
2017-12-09T04:40:23.498Z,18.90
2017-12-09T04:42:50.907Z,18.30
2017-12-09T04:45:18.321Z,19.12
2017-12-09T04:47:45.745Z,18.17
2017-12-09T04:50:13.153Z,19.98
2017-12-09T04:52:40.566Z,18.87
2017-12-09T04:55:07.990Z,18.70
2017-12-09T04:57:35.413Z,18.40
2017-12-09T05:00:02.821Z,18.23
2017-12-09T05:02:30.241Z,18.55
2017-12-09T05:04:57.657Z,19.12
2017-12-09T05:07:25.069Z,19.37
2017-12-09T05:09:52.482Z,18.30
2017-12-09T05:12:20.209Z,19.45
2017-12-09T05:14:47.633Z,19.20
2017-12-09T05:17:15.073Z,18.80
2017-12-09T05:19:42.487Z,18.73
2017-12-09T05:22:09.897Z,18.40
2017-12-09T05:24:37.318Z,19.08
2017-12-09T05:27:04.741Z,18.30
2017-12-09T05:29:32.153Z,18.95
2017-12-09T05:31:59.586Z,19.70
2017-12-09T05:34:27.045Z,18.40
2017-12-09T05:36:54.441Z,18.12
2017-12-09T05:39:21.858Z,17.27
2017-12-09T05:41:49.270Z,17.25
2017-12-09T05:44:16.676Z,16.52
2017-12-09T05:46:44.090Z,17.37
2017-12-09T05:49:11.510Z,18.30
2017-12-09T05:51:38.919Z,17.83
2017-12-09T05:54:06.325Z,17.77
2017-12-09T05:56:33.757Z,19.00
2017-12-09T05:59:01.171Z,18.25
2017-12-09T06:01:28.588Z,19.27
2017-12-09T06:03:55.993Z,17.80
2017-12-09T06:06:23.438Z,19.20
2017-12-09T06:08:50.845Z,18.87
2017-12-09T06:11:18.253Z,19.77
2017-12-09T06:13:45.668Z,18.70
2017-12-09T06:16:13.081Z,18.23
2017-12-09T06:18:40.497Z,19.40
2017-12-09T06:21:07.937Z,17.98
2017-12-09T06:23:35.365Z,17.85
2017-12-09T06:26:02.789Z,18.80
2017-12-09T06:28:30.969Z,18.37
2017-12-09T06:30:58.385Z,17.92
2017-12-09T06:33:26.719Z,17.30
2017-12-09T06:35:54.136Z,17.15
2017-12-09T06:38:21.553Z,19.05
2017-12-09T06:40:49.030Z,18.15
2017-12-09T06:43:16.514Z,17.98
2017-12-09T06:45:43.940Z,18.08
2017-12-09T06:48:11.359Z,18.40
2017-12-09T06:50:38.765Z,16.90
2017-12-09T06:53:06.189Z,18.73
2017-12-09T06:55:33.609Z,18.00
2017-12-09T06:58:01.053Z,19.10
2017-12-09T07:00:28.473Z,18.27
2017-12-09T07:02:55.881Z,19.02
2017-12-09T07:05:23.327Z,17.37
2017-12-09T07:07:50.738Z,18.20
2017-12-09T07:10:18.173Z,17.20
2017-12-09T07:12:45.585Z,17.00
2017-12-09T07:15:13.009Z,18.48
2017-12-09T07:17:40.430Z,18.23
2017-12-09T07:20:07.854Z,16.48
2017-12-09T07:22:35.267Z,16.62
2017-12-09T07:25:02.674Z,16.42
2017-12-09T07:27:30.089Z,17.75
2017-12-09T07:29:57.493Z,15.45
2017-12-09T07:32:24.921Z,17.62
2017-12-09T07:34:52.337Z,17.77
2017-12-09T07:37:19.765Z,16.60
2017-12-09T07:39:47.173Z,17.35
2017-12-09T07:42:14.581Z,17.98
2017-12-09T07:44:42.017Z,18.45
2017-12-09T07:47:09.425Z,19.30
2017-12-09T07:49:36.842Z,17.80
2017-12-09T07:52:04.277Z,19.12
2017-12-09T07:54:31.686Z,18.12
2017-12-09T07:56:59.109Z,15.85
2017-12-09T07:59:26.603Z,16.55
2017-12-09T08:01:54.016Z,17.65
2017-12-09T08:04:21.485Z,17.83
2017-12-09T08:06:48.905Z,18.33
2017-12-09T08:09:16.315Z,17.00
2017-12-09T08:11:43.749Z,18.00
2017-12-09T08:14:11.208Z,18.15
2017-12-09T08:16:38.633Z,18.45
2017-12-09T08:19:06.049Z,16.02
2017-12-09T08:21:33.461Z,19.50
2017-12-09T08:24:00.934Z,20.33
2017-12-09T08:26:28.377Z,19.95
2017-12-09T08:28:55.810Z,20.48
2017-12-09T08:31:23.247Z,21.80
2017-12-09T08:33:50.645Z,20.10
2017-12-09T08:36:18.073Z,23.73
2017-12-09T08:38:45.532Z,22.87
2017-12-09T08:41:12.941Z,21.60
2017-12-09T08:43:40.373Z,22.90
2017-12-09T08:46:07.816Z,20.27
2017-12-09T08:48:35.257Z,22.45
2017-12-09T08:51:02.681Z,21.17
2017-12-09T08:53:30.090Z,20.83
2017-12-09T08:55:57.510Z,21.23
2017-12-09T08:58:24.941Z,21.50
2017-12-09T09:00:52.372Z,21.90
2017-12-09T09:03:19.837Z,22.70
2017-12-09T09:05:47.241Z,23.15
2017-12-09T09:08:14.644Z,23.05
2017-12-09T09:10:42.089Z,23.62
2017-12-09T09:13:09.517Z,22.33
2017-12-09T09:15:36.942Z,23.60
2017-12-09T09:18:04.397Z,25.88
2017-12-09T09:20:31.833Z,24.45
2017-12-09T09:22:59.277Z,22.13
2017-12-09T09:25:26.705Z,24.70
2017-12-09T09:27:54.136Z,24.48
2017-12-09T09:30:21.570Z,22.90
2017-12-09T09:32:49.014Z,24.87
2017-12-09T09:35:16.422Z,23.40
2017-12-09T09:37:43.857Z,22.73
2017-12-09T09:40:11.265Z,24.90
2017-12-09T09:42:38.674Z,24.15
2017-12-09T09:45:06.084Z,24.55
2017-12-09T09:47:33.497Z,22.60
2017-12-09T09:50:00.914Z,22.70
2017-12-09T09:52:28.325Z,23.27
2017-12-09T09:54:55.745Z,22.00
2017-12-09T09:57:23.165Z,23.40
2017-12-09T09:59:50.574Z,21.98
2017-12-09T10:02:18.007Z,21.65
2017-12-09T10:04:45.425Z,21.52
2017-12-09T10:07:12.839Z,21.95
2017-12-09T10:09:40.270Z,21.08
2017-12-09T10:12:07.677Z,21.20
2017-12-09T10:14:35.105Z,21.27
2017-12-09T10:17:02.520Z,19.98
2017-12-09T10:19:29.936Z,20.45
2017-12-09T10:21:57.362Z,20.62
2017-12-09T10:24:24.793Z,20.23
2017-12-09T10:26:52.211Z,20.90
2017-12-09T10:29:19.642Z,18.70
2017-12-09T10:31:47.057Z,20.95
2017-12-09T10:34:14.463Z,19.95
2017-12-09T10:36:41.874Z,21.17
2017-12-09T10:39:09.289Z,21.55
2017-12-09T10:41:36.702Z,19.12
2017-12-09T10:44:04.117Z,21.40
2017-12-09T10:46:31.526Z,19.52
2017-12-09T10:48:58.953Z,21.65
2017-12-09T10:51:26.357Z,20.60
2017-12-09T10:53:53.774Z,20.10
2017-12-09T10:56:21.189Z,20.30
2017-12-09T10:58:48.597Z,21.25
2017-12-09T11:01:16.047Z,21.90
2017-12-09T11:03:43.453Z,19.75
2017-12-09T11:06:10.886Z,19.05
2017-12-09T11:08:38.299Z,19.35
2017-12-09T11:11:05.713Z,21.00
2017-12-09T11:13:33.140Z,22.27
2017-12-09T11:16:00.541Z,20.48
2017-12-09T11:18:27.959Z,20.30
2017-12-09T11:20:55.365Z,18.23
2017-12-09T11:23:22.793Z,19.10
2017-12-09T11:25:50.208Z,18.45
2017-12-09T11:28:17.629Z,17.70
2017-12-09T11:30:45.058Z,19.65
2017-12-09T11:33:12.473Z,17.95
2017-12-09T11:35:39.902Z,18.75
2017-12-09T11:38:07.299Z,18.70
2017-12-09T11:40:34.729Z,16.23
2017-12-09T11:43:02.138Z,16.70
2017-12-09T11:45:30.361Z,17.62
2017-12-09T11:47:57.781Z,17.83
2017-12-09T11:50:25.189Z,17.60
2017-12-09T11:52:52.617Z,16.98
2017-12-09T11:55:20.038Z,17.00
2017-12-09T11:57:47.476Z,16.25
2017-12-09T12:00:14.882Z,17.02
2017-12-09T12:02:42.294Z,17.00
2017-12-09T12:05:09.710Z,16.33
2017-12-09T12:07:37.127Z,16.67
2017-12-09T12:10:04.545Z,17.48
2017-12-09T12:12:31.971Z,15.90
2017-12-09T12:14:59.402Z,18.90
2017-12-09T12:17:26.813Z,17.08
2017-12-09T12:19:54.237Z,16.65
2017-12-09T12:22:21.674Z,17.73
2017-12-09T12:24:49.085Z,18.50
2017-12-09T12:27:16.508Z,19.37
2017-12-09T12:29:43.945Z,18.75
2017-12-09T12:32:11.373Z,18.90
2017-12-09T12:34:38.805Z,20.25
2017-12-09T12:37:06.216Z,19.08
2017-12-09T12:39:33.632Z,18.50
2017-12-09T12:42:01.041Z,19.52
2017-12-09T12:44:28.474Z,19.20
2017-12-09T12:46:55.897Z,18.98
2017-12-09T12:49:23.316Z,20.23
2017-12-09T12:51:50.742Z,18.50
2017-12-09T12:54:18.153Z,19.05
2017-12-09T12:56:45.570Z,17.40
2017-12-09T12:59:12.990Z,19.55
2017-12-09T13:01:40.453Z,19.05
2017-12-09T13:04:07.869Z,18.33
2017-12-09T13:06:35.293Z,18.08
2017-12-09T13:09:02.718Z,17.70
2017-12-09T13:11:30.173Z,20.23
2017-12-09T13:13:57.594Z,19.35
2017-12-09T13:16:25.091Z,18.37
2017-12-09T13:18:52.519Z,18.90
2017-12-09T13:21:19.926Z,21.40
2017-12-09T13:23:47.339Z,21.85
2017-12-09T13:26:14.798Z,20.27
2017-12-09T13:28:42.213Z,20.98
2017-12-09T13:31:09.642Z,20.55
2017-12-09T13:33:37.054Z,20.40
2017-12-09T13:36:04.477Z,20.20
2017-12-09T13:38:31.894Z,18.90
2017-12-09T13:40:59.306Z,20.00
2017-12-09T13:43:26.726Z,19.48
2017-12-09T13:45:54.146Z,19.75
2017-12-09T13:48:21.563Z,20.27
2017-12-09T13:50:48.981Z,19.35
2017-12-09T13:53:16.417Z,19.55
2017-12-09T13:55:43.829Z,19.15
2017-12-09T13:58:11.369Z,19.02
2017-12-09T14:00:38.789Z,18.08
2017-12-09T14:03:06.205Z,18.58
2017-12-09T14:05:33.638Z,18.35
2017-12-09T14:08:01.058Z,17.75
2017-12-09T14:10:28.529Z,17.87
2017-12-09T14:12:55.895Z,17.30
2017-12-09T14:15:23.898Z,16.90
2017-12-09T14:17:51.357Z,17.20
2017-12-09T14:20:19.257Z,15.90
2017-12-09T14:22:46.662Z,15.13
2017-12-09T14:25:17.968Z,17.08
2017-12-09T14:27:45.388Z,15.48
2017-12-09T14:30:12.806Z,17.17
2017-12-09T14:32:50.283Z,15.40
2017-12-09T14:35:18.693Z,15.43
2017-12-09T14:37:46.103Z,15.00
2017-12-09T14:40:13.517Z,16.55
2017-12-09T14:42:44.105Z,15.95
2017-12-09T14:45:11.531Z,14.52
2017-12-09T14:47:38.936Z,16.10
2017-12-09T14:50:06.365Z,16.00
2017-12-09T14:52:33.782Z,15.00
2017-12-09T14:55:01.197Z,15.20
2017-12-09T14:57:28.621Z,15.13
2017-12-09T14:59:56.087Z,15.30
2017-12-09T15:02:23.505Z,15.05
2017-12-09T15:04:50.925Z,14.55
2017-12-09T15:07:18.357Z,15.52
2017-12-09T15:09:45.765Z,15.25
2017-12-09T15:12:17.056Z,13.65
2017-12-09T15:14:44.527Z,14.18
2017-12-09T15:17:11.952Z,14.27
2017-12-09T15:19:39.365Z,14.30
2017-12-09T15:22:06.786Z,14.60
2017-12-09T15:24:34.213Z,14.70
2017-12-09T15:27:01.635Z,14.87
2017-12-09T15:29:29.062Z,15.02
2017-12-09T15:32:01.641Z,15.07
2017-12-09T15:34:29.058Z,14.68
2017-12-09T15:36:56.478Z,15.52
2017-12-09T15:39:26.834Z,14.68
2017-12-09T15:41:54.278Z,14.73
2017-12-09T15:44:21.699Z,15.15
2017-12-09T15:46:49.105Z,15.52
2017-12-09T15:49:16.529Z,14.65
2017-12-09T15:51:43.950Z,14.95
2017-12-09T15:54:11.369Z,14.85
2017-12-09T15:56:38.778Z,13.80
2017-12-09T15:59:06.206Z,13.70
2017-12-09T16:01:33.622Z,13.55
2017-12-09T16:04:01.029Z,13.82
2017-12-09T16:06:28.441Z,13.75
2017-12-09T16:08:55.854Z,13.13
2017-12-09T16:11:23.282Z,13.80
2017-12-09T16:13:50.701Z,13.20
2017-12-09T16:16:18.121Z,13.38
2017-12-09T16:18:45.536Z,13.65
2017-12-09T16:21:13.478Z,14.40
2017-12-09T16:23:40.898Z,13.52
2017-12-09T16:26:08.313Z,14.93
2017-12-09T16:28:35.735Z,14.52
2017-12-09T16:31:03.141Z,13.62
2017-12-09T16:33:30.581Z,13.60
2017-12-09T16:35:58.008Z,13.70
2017-12-09T16:38:25.413Z,15.43
2017-12-09T16:40:52.842Z,15.88
2017-12-09T16:43:20.266Z,14.90
2017-12-09T16:45:47.677Z,15.18
2017-12-09T16:48:15.086Z,14.27
2017-12-09T16:50:42.521Z,15.43
2017-12-09T16:53:09.929Z,15.32
2017-12-09T16:55:37.342Z,15.85
2017-12-09T16:58:04.762Z,15.75
2017-12-09T17:00:32.174Z,15.70
2017-12-09T17:02:59.589Z,14.82
2017-12-09T17:05:27.012Z,14.80
2017-12-09T17:07:54.432Z,14.05
2017-12-09T17:10:21.841Z,14.87
2017-12-09T17:12:49.257Z,15.27
2017-12-09T17:15:16.681Z,15.15
2017-12-09T17:17:44.105Z,14.00
2017-12-09T17:20:11.613Z,14.27
2017-12-09T17:22:39.021Z,14.50
2017-12-09T17:25:06.450Z,14.90
2017-12-09T17:27:33.912Z,15.20
2017-12-09T17:30:01.310Z,13.45
2017-12-09T17:32:28.733Z,14.25
2017-12-09T17:34:56.169Z,15.07
2017-12-09T17:37:23.582Z,14.48
2017-12-09T17:39:51.101Z,14.40
2017-12-09T17:42:18.549Z,14.02
2017-12-09T17:44:45.953Z,11.52
2017-12-09T17:47:13.389Z,12.32
2017-12-09T17:49:40.797Z,13.30
2017-12-09T17:52:08.253Z,12.80
2017-12-09T17:54:35.665Z,12.75
2017-12-09T17:57:03.087Z,12.85
2017-12-09T17:59:30.524Z,12.60
2017-12-09T18:01:57.941Z,13.00
2017-12-09T18:04:25.381Z,12.70
2017-12-09T18:06:52.836Z,12.95
2017-12-09T18:09:20.242Z,13.02
2017-12-09T18:11:48.081Z,11.57
2017-12-09T18:14:15.506Z,12.98
2017-12-09T18:16:43.791Z,12.77
2017-12-09T18:19:12.281Z,12.88
2017-12-09T18:21:40.497Z,12.63
2017-12-09T18:24:07.909Z,12.40
2017-12-09T18:26:35.316Z,13.13
2017-12-09T18:29:09.181Z,11.77
2017-12-09T18:31:36.600Z,13.10
2017-12-09T18:34:04.008Z,12.50
2017-12-09T18:36:31.429Z,12.55
2017-12-09T18:38:58.830Z,12.32
2017-12-09T18:41:26.239Z,12.15
2017-12-09T18:43:53.653Z,12.85
2017-12-09T18:46:21.071Z,12.63
2017-12-09T18:48:48.489Z,12.70
2017-12-09T18:51:16.850Z,12.75
2017-12-09T18:53:44.362Z,12.82
2017-12-09T18:56:11.769Z,13.10
2017-12-09T18:58:39.180Z,13.10
2017-12-09T19:01:06.626Z,13.82
2017-12-09T19:03:34.038Z,12.95
2017-12-09T19:06:01.454Z,14.10
2017-12-09T19:08:28.865Z,13.82
2017-12-09T19:10:56.329Z,12.45
2017-12-09T19:13:23.729Z,12.60
2017-12-09T19:15:51.252Z,13.65
2017-12-09T19:18:18.677Z,14.05
2017-12-09T19:20:46.081Z,14.40
2017-12-09T19:23:13.502Z,12.68
2017-12-09T19:25:40.909Z,12.90
2017-12-09T19:28:08.321Z,13.30
2017-12-09T19:30:35.797Z,12.90
2017-12-09T19:33:03.206Z,13.30
2017-12-09T19:35:30.608Z,13.27
2017-12-09T19:37:58.026Z,12.63
2017-12-09T19:40:25.437Z,13.13
2017-12-09T19:42:52.843Z,12.88
2017-12-09T19:45:20.309Z,14.02
2017-12-09T19:47:47.705Z,12.07
2017-12-09T19:50:15.149Z,12.13
2017-12-09T19:52:42.557Z,14.73
2017-12-09T19:55:09.979Z,12.60
2017-12-09T19:57:37.878Z,13.30
2017-12-09T20:00:05.273Z,12.45
2017-12-09T20:02:32.689Z,12.43
2017-12-09T20:05:00.099Z,10.88
2017-12-09T20:07:27.513Z,13.18
2017-12-09T20:09:54.920Z,12.70
2017-12-09T20:12:22.331Z,12.63
2017-12-09T20:14:49.744Z,12.77
2017-12-09T20:17:17.155Z,12.93
2017-12-09T20:19:44.570Z,12.52
2017-12-09T20:22:12.795Z,12.65
2017-12-09T20:24:40.253Z,12.52
2017-12-09T20:27:07.650Z,12.93
2017-12-09T20:29:35.057Z,12.15
2017-12-09T20:32:02.478Z,13.30
2017-12-09T20:34:29.891Z,13.05
2017-12-09T20:36:57.309Z,13.27
2017-12-09T20:39:24.745Z,12.90
2017-12-09T20:41:52.202Z,13.88
2017-12-09T20:44:19.617Z,12.60
2017-12-09T20:46:47.029Z,12.65
2017-12-09T20:49:14.441Z,12.98
2017-12-09T20:51:41.850Z,12.50
2017-12-09T20:54:09.258Z,13.20
2017-12-09T20:56:36.664Z,13.32
2017-12-09T20:59:04.086Z,13.65
2017-12-09T21:01:31.490Z,12.40
2017-12-09T21:03:58.897Z,12.50
2017-12-09T21:06:26.321Z,13.88
2017-12-09T21:08:53.717Z,12.65
2017-12-09T21:11:21.149Z,12.27
2017-12-09T21:13:48.613Z,12.27
2017-12-09T21:16:15.981Z,14.48
2017-12-09T21:18:47.157Z,15.00
2017-12-09T21:21:15.409Z,15.85
2017-12-09T21:23:42.826Z,14.80
2017-12-09T21:26:10.241Z,16.87
2017-12-09T21:28:37.657Z,16.98
2017-12-09T21:31:05.074Z,17.05
2017-12-09T21:33:32.489Z,16.92
2017-12-09T21:35:59.897Z,15.30
2017-12-09T21:38:27.322Z,15.57
2017-12-09T21:40:54.729Z,14.87
2017-12-09T21:43:22.141Z,16.95
2017-12-09T21:45:49.555Z,14.85
2017-12-09T21:48:16.971Z,15.60
2017-12-09T21:50:44.374Z,15.95
2017-12-09T21:53:11.781Z,15.55
2017-12-09T21:55:39.209Z,15.80
2017-12-09T21:58:06.624Z,15.00
2017-12-09T22:00:34.046Z,15.20
2017-12-09T22:03:01.469Z,14.00
2017-12-09T22:05:28.881Z,13.80
2017-12-09T22:07:56.293Z,14.10
2017-12-09T22:10:23.712Z,14.50
2017-12-09T22:12:51.148Z,13.98
2017-12-09T22:15:18.558Z,14.70
2017-12-09T22:17:45.965Z,13.80
2017-12-09T22:20:13.376Z,14.57
2017-12-09T22:22:41.597Z,14.55
2017-12-09T22:25:09.014Z,14.85
2017-12-09T22:27:36.426Z,14.63
2017-12-09T22:30:03.849Z,16.90
2017-12-09T22:32:31.257Z,14.30
2017-12-09T22:34:58.673Z,14.25
2017-12-09T22:37:26.105Z,15.07
2017-12-09T22:39:53.517Z,14.60
2017-12-09T22:42:21.645Z,14.65
2017-12-09T22:44:49.055Z,14.02
2017-12-09T22:47:16.486Z,14.90
2017-12-09T22:49:43.940Z,14.57
2017-12-09T22:52:11.301Z,14.57
2017-12-09T22:54:38.725Z,15.00
2017-12-09T22:57:06.133Z,14.80
2017-12-09T22:59:33.550Z,15.15
2017-12-09T23:02:00.957Z,15.05
2017-12-09T23:04:28.381Z,15.10
2017-12-09T23:06:55.802Z,14.95
2017-12-09T23:09:23.208Z,15.65
2017-12-09T23:11:50.636Z,15.77
2017-12-09T23:14:18.034Z,14.65
2017-12-09T23:16:45.450Z,14.80
2017-12-09T23:19:12.857Z,15.15
2017-12-09T23:21:40.286Z,16.90
2017-12-09T23:24:07.690Z,16.35
2017-12-09T23:26:35.101Z,17.48
2017-12-09T23:29:02.523Z,15.15
2017-12-09T23:31:29.930Z,17.85
2017-12-09T23:33:57.349Z,15.73
2017-12-09T23:36:24.810Z,16.62
2017-12-09T23:38:52.193Z,16.50
2017-12-09T23:41:19.601Z,17.90
2017-12-09T23:43:47.010Z,16.35
2017-12-09T23:46:14.427Z,16.87
2017-12-09T23:48:41.858Z,17.10
2017-12-09T23:51:09.270Z,16.65
2017-12-09T23:53:36.682Z,17.37
2017-12-09T23:56:04.106Z,16.12
2017-12-09T23:58:31.509Z,16.98
